Time,TemperatureF,DewpointF,PressureIn,WindDirection,WindDirectionDegrees,WindSpeedMPH,WindSpeedGustMPH,Humidity,HourlyPrecipIn,Conditions,Clouds,dailyrainin,SoftwareType,DateUTC
2013-07-25 00:04:00,66.6,57.0,29.96,NNW,332,0.0,0.0,71,0.00,,,0.00,weatherlink.com 1.10,2013-07-25 04:04:00,
2013-07-25 00:19:00,65.5,57.0,29.96,NNW,332,0.0,1.0,73,0.00,,,0.00,weatherlink.com 1.10,2013-07-25 04:19:00,
2013-07-25 00:34:00,64.9,56.0,29.97,NNW,332,0.0,3.0,73,0.00,,,0.00,weatherlink.com 1.10,2013-07-25 04:34:00,
2013-07-25 00:49:00,65.6,56.0,29.97,NNW,327,1.0,5.0,70,0.00,,,0.00,weatherlink.com 1.10,2013-07-25 04:49:00,
2013-07-25 01:04:00,66.0,55.0,29.97,NNW,338,4.0,4.0,68,0.00,,,0.00,weatherlink.com 1.10,2013-07-25 05:04:00,
2013-07-25 01:19:00,66.1,55.0,29.97,NNW,337,2.0,7.0,68,0.00,,,0.00,weatherlink.com 1.10,2013-07-25 05:19:00,
2013-07-25 01:34:00,66.0,56.0,29.97,NNW,332,4.0,6.0,69,0.00,,,0.00,weatherlink.com 1.10,2013-07-25 05:34:00,
2013-07-25 01:49:00,65.9,55.0,29.98,NNW,333,4.0,7.0,68,0.00,,,0.00,weatherlink.com 1.10,2013-07-25 05:49:00,
2013-07-25 02:04:00,65.7,55.0,29.98,North,355,0.0,7.0,68,0.00,,,0.00,weatherlink.com 1.10,2013-07-25 06:04:00,
2013-07-25 02:19:00,65.4,55.0,29.98,NNW,340,4.0,8.0,69,0.00,,,0.00,weatherlink.com 1.10,2013-07-25 06:19:00,
2013-07-25 02:34:00,65.1,55.0,29.98,NNW,346,2.0,7.0,70,0.00,,,0.00,weatherlink.com 1.10,2013-07-25 06:34:00,
2013-07-25 02:49:00,64.9,55.0,29.98,NNW,342,2.0,4.0,71,0.00,,,0.00,weatherlink.com 1.10,2013-07-25 06:49:00,
2013-07-25 03:04:00,64.7,55.0,29.98,NNW,331,0.0,2.0,71,0.00,,,0.00,weatherlink.com 1.10,2013-07-25 07:04:00,
2013-07-25 03:19:00,64.3,55.0,29.98,NNW,331,1.0,3.0,72,0.00,,,0.00,weatherlink.com 1.10,2013-07-25 07:19:00,
2013-07-25 03:34:00,63.9,55.0,29.97,North,355,0.0,3.0,73,0.00,,,0.00,weatherlink.com 1.10,2013-07-25 07:34:00,
2013-07-25 03:49:00,63.4,55.0,29.97,NNW,342,0.0,4.0,74,0.00,,,0.00,weatherlink.com 1.10,2013-07-25 07:49:00,
2013-07-25 04:04:00,63.0,55.0,29.97,NNW,340,0.0,5.0,74,0.00,,,0.00,weatherlink.com 1.10,2013-07-25 08:04:00,
2013-07-25 04:19:00,62.5,55.0,29.98,NNW,346,0.0,3.0,76,0.00,,,0.00,weatherlink.com 1.10,2013-07-25 08:19:00,
2013-07-25 04:34:00,61.7,55.0,29.98,NNW,341,0.0,4.0,78,0.00,,,0.00,weatherlink.com 1.10,2013-07-25 08:34:00,
2013-07-25 04:49:00,61.0,55.0,29.98,NNW,341,0.0,1.0,80,0.00,,,0.00,weatherlink.com 1.10,2013-07-25 08:49:00,
2013-07-25 05:04:00,60.6,54.0,29.98,NNW,341,0.0,1.0,80,0.00,,,0.00,weatherlink.com 1.10,2013-07-25 09:04:00,
2013-07-25 05:19:00,60.3,54.0,29.97,NNW,341,0.0,1.0,81,0.00,,,0.00,weatherlink.com 1.10,2013-07-25 09:19:00,
2013-07-25 05:34:00,59.8,54.0,29.98,NNW,341,0.0,1.0,82,0.00,,,0.00,weatherlink.com 1.10,2013-07-25 09:34:00,
2013-07-25 05:49:00,59.7,54.0,29.98,NNW,341,0.0,2.0,82,0.00,,,0.00,weatherlink.com 1.10,2013-07-25 09:49:00,
2013-07-25 06:04:00,59.6,54.0,29.98,NNW,341,0.0,1.0,82,0.00,,,0.00,weatherlink.com 1.10,2013-07-25 10:04:00,
2013-07-25 06:19:00,59.4,54.0,29.99,NNW,341,0.0,1.0,82,0.00,,,0.00,weatherlink.com 1.10,2013-07-25 10:19:00,
2013-07-25 06:34:00,59.0,54.0,29.99,NNW,341,0.0,2.0,83,0.00,,,0.00,weatherlink.com 1.10,2013-07-25 10:34:00,
2013-07-25 06:49:00,59.1,54.0,30.00,NNW,341,0.0,2.0,83,0.00,,,0.00,weatherlink.com 1.10,2013-07-25 10:49:00,
2013-07-25 07:04:00,59.0,54.0,30.01,NNW,341,0.0,1.0,84,0.00,,,0.00,weatherlink.com 1.10,2013-07-25 11:04:00,
2013-07-25 07:19:00,59.6,54.0,30.02,NNW,340,0.0,3.0,82,0.00,,,0.00,weatherlink.com 1.10,2013-07-25 11:19:00,
2013-07-25 07:34:00,61.4,55.0,30.02,NW,324,3.0,5.0,79,0.00,,,0.00,weatherlink.com 1.10,2013-07-25 11:34:00,
2013-07-25 07:49:00,62.4,55.0,30.02,North,351,0.0,5.0,77,0.00,,,0.00,weatherlink.com 1.10,2013-07-25 11:49:00,
2013-07-25 08:04:00,62.7,55.0,30.02,NNW,341,3.0,5.0,75,0.00,,,0.00,weatherlink.com 1.10,2013-07-25 12:04:00,
2013-07-25 08:19:00,63.2,55.0,30.02,NNW,348,2.0,5.0,74,0.00,,,0.00,weatherlink.com 1.10,2013-07-25 12:19:00,
2013-07-25 08:34:00,63.6,55.0,30.02,North,355,0.0,4.0,74,0.00,,,0.00,weatherlink.com 1.10,2013-07-25 12:34:00,
2013-07-25 08:49:00,64.7,55.0,30.02,NNW,342,2.0,4.0,72,0.00,,,0.00,weatherlink.com 1.10,2013-07-25 12:49:00,
2013-07-25 09:04:00,64.9,56.0,30.02,NNW,339,0.0,5.0,72,0.00,,,0.00,weatherlink.com 1.10,2013-07-25 13:04:00,
2013-07-25 09:19:00,65.2,55.0,30.02,NNW,342,0.0,6.0,69,0.00,,,0.00,weatherlink.com 1.10,2013-07-25 13:19:00,
2013-07-25 09:35:00,67.3,57.0,30.03,ENE,77,0.0,4.0,69,0.00,,,0.00,weatherlink.com 1.10,2013-07-25 13:35:00,
2013-07-25 09:50:00,68.6,56.0,30.03,NNW,340,0.0,4.0,65,0.00,,,0.00,weatherlink.com 1.10,2013-07-25 13:50:00,
2013-07-25 10:05:00,68.9,57.0,30.02,NE,42,0.0,6.0,65,0.00,,,0.00,weatherlink.com 1.10,2013-07-25 14:05:00,
2013-07-25 10:20:00,69.5,57.0,30.02,North,355,3.0,8.0,64,0.00,,,0.00,weatherlink.com 1.10,2013-07-25 14:20:00,
2013-07-25 10:35:00,70.5,57.0,30.03,NE,55,1.0,8.0,63,0.00,,,0.00,weatherlink.com 1.10,2013-07-25 14:35:00,
2013-07-25 10:50:00,71.3,56.0,30.03,NNW,327,6.0,6.0,59,0.00,,,0.00,weatherlink.com 1.10,2013-07-25 14:50:00,
2013-07-25 11:05:00,71.5,57.0,30.04,East,87,5.0,7.0,60,0.00,,,0.00,weatherlink.com 1.10,2013-07-25 15:05:00,
2013-07-25 11:20:00,72.0,56.0,30.03,NE,40,2.0,6.0,58,0.00,,,0.00,weatherlink.com 1.10,2013-07-25 15:20:00,
2013-07-25 11:35:00,73.7,56.0,30.04,North,360,5.0,8.0,54,0.00,,,0.00,weatherlink.com 1.10,2013-07-25 15:35:00,
2013-07-25 11:50:00,73.6,56.0,30.05,North,351,0.0,9.0,54,0.00,,,0.00,weatherlink.com 1.10,2013-07-25 15:50:00,
2013-07-25 12:05:00,73.7,57.0,30.04,NNW,343,0.0,7.0,56,0.00,,,0.00,weatherlink.com 1.10,2013-07-25 16:05:00,
2013-07-25 12:20:00,74.4,56.0,30.04,NNW,345,1.0,6.0,53,0.00,,,0.00,weatherlink.com 1.10,2013-07-25 16:20:00,
2013-07-25 12:35:00,74.3,57.0,30.04,WSW,254,4.0,6.0,55,0.00,,,0.00,weatherlink.com 1.10,2013-07-25 16:35:00,
2013-07-25 12:50:00,74.0,55.0,30.03,NNW,340,1.0,8.0,52,0.00,,,0.00,weatherlink.com 1.10,2013-07-25 16:50:00,
2013-07-25 13:05:00,75.6,57.0,30.04,SW,236,0.0,8.0,52,0.00,,,0.00,weatherlink.com 1.10,2013-07-25 17:05:00,
2013-07-25 13:20:00,76.5,56.0,30.04,NNW,337,2.0,7.0,50,0.00,,,0.00,weatherlink.com 1.10,2013-07-25 17:20:00,
2013-07-25 13:35:00,77.7,57.0,30.03,NNW,344,2.0,6.0,49,0.00,,,0.00,weatherlink.com 1.10,2013-07-25 17:35:00,
2013-07-25 13:50:00,76.5,55.0,30.03,NW,325,2.0,8.0,48,0.00,,,0.00,weatherlink.com 1.10,2013-07-25 17:50:00,
2013-07-25 14:05:00,76.6,57.0,30.03,ENE,61,4.0,7.0,51,0.00,,,0.00,weatherlink.com 1.10,2013-07-25 18:05:00,
2013-07-25 14:20:00,77.0,56.0,30.02,WSW,256,2.0,7.0,49,0.00,,,0.00,weatherlink.com 1.10,2013-07-25 18:20:00,
2013-07-25 14:35:00,77.3,58.0,30.02,ESE,110,1.0,8.0,51,0.00,,,0.00,weatherlink.com 1.10,2013-07-25 18:35:00,
2013-07-25 14:51:00,78.5,57.0,30.02,ESE,117,3.0,6.0,48,0.00,,,0.00,weatherlink.com 1.10,2013-07-25 18:51:00,
2013-07-25 15:05:00,78.7,55.0,30.02,NW,319,3.0,8.0,44,0.00,,,0.00,weatherlink.com 1.10,2013-07-25 19:05:00,
2013-07-25 15:20:00,80.4,56.0,30.02,NW,310,4.0,9.0,43,0.00,,,0.00,weatherlink.com 1.10,2013-07-25 19:20:00,
2013-07-25 15:35:00,79.6,54.0,30.03,WSW,256,1.0,5.0,42,0.00,,,0.00,weatherlink.com 1.10,2013-07-25 19:35:00,
2013-07-25 15:51:00,79.8,55.0,30.03,NNW,333,6.0,9.0,42,0.00,,,0.00,weatherlink.com 1.10,2013-07-25 19:51:00,
2013-07-25 16:05:00,79.5,53.0,30.02,NW,325,4.0,9.0,40,0.00,,,0.00,weatherlink.com 1.10,2013-07-25 20:05:00,
2013-07-25 16:21:00,79.9,53.0,30.02,WNW,284,1.0,9.0,40,0.00,,,0.00,weatherlink.com 1.10,2013-07-25 20:21:00,
2013-07-25 16:36:00,80.8,54.0,30.03,WSW,242,2.0,6.0,39,0.00,,,0.00,weatherlink.com 1.10,2013-07-25 20:36:00,
2013-07-25 17:06:00,80.5,52.0,30.02,NNE,32,6.0,10.0,37,0.00,,,0.00,weatherlink.com 1.10,2013-07-25 21:06:00,
2013-07-25 17:21:00,80.5,53.0,30.02,NE,37,1.0,7.0,38,0.00,,,0.00,weatherlink.com 1.10,2013-07-25 21:21:00,
2013-07-25 17:36:00,80.6,51.0,30.02,NNW,332,2.0,9.0,35,0.00,,,0.00,weatherlink.com 1.10,2013-07-25 21:36:00,
2013-07-25 17:51:00,80.4,52.0,30.01,NNW,332,4.0,8.0,37,0.00,,,0.00,weatherlink.com 1.10,2013-07-25 21:51:00,
2013-07-25 18:06:00,80.4,53.0,30.00,East,84,0.0,9.0,39,0.00,,,0.00,weatherlink.com 1.10,2013-07-25 22:06:00,
2013-07-25 18:21:00,81.3,55.0,30.02,NE,42,1.0,6.0,40,0.00,,,0.00,weatherlink.com 1.10,2013-07-25 22:21:00,
2013-07-25 18:36:00,81.3,54.0,30.01,NNW,334,2.0,7.0,39,0.00,,,0.00,weatherlink.com 1.10,2013-07-25 22:36:00,
2013-07-25 19:06:00,80.6,56.0,30.01,NE,38,1.0,4.0,43,0.00,,,0.00,weatherlink.com 1.10,2013-07-25 23:06:00,
2013-07-25 19:21:00,80.7,56.0,30.01,SSE,164,1.0,8.0,43,0.00,,,0.00,weatherlink.com 1.10,2013-07-25 23:21:00,
2013-07-25 19:36:00,79.8,55.0,30.02,SSW,192,1.0,5.0,42,0.00,,,0.00,weatherlink.com 1.10,2013-07-25 23:36:00,
2013-07-25 19:51:00,80.3,55.0,30.02,ESE,118,0.0,3.0,42,0.00,,,0.00,weatherlink.com 1.10,2013-07-25 23:51:00,
2013-07-25 20:21:00,79.7,56.0,30.02,ESE,117,0.0,2.0,44,0.00,,,0.00,weatherlink.com 1.10,2013-07-26 00:21:00,
2013-07-25 20:51:00,76.5,58.0,30.03,ESE,117,0.0,1.0,53,0.00,,,0.00,weatherlink.com 1.10,2013-07-26 00:51:00,
2013-07-25 21:06:00,75.0,58.0,30.03,ESE,117,0.0,0.0,55,0.00,,,0.00,weatherlink.com 1.10,2013-07-26 01:06:00,
2013-07-25 21:21:00,72.9,57.0,30.03,ESE,117,0.0,1.0,58,0.00,,,0.00,weatherlink.com 1.10,2013-07-26 01:21:00,
2013-07-25 21:36:00,71.9,58.0,30.03,ESE,117,0.0,1.0,61,0.00,,,0.00,weatherlink.com 1.10,2013-07-26 01:36:00,
2013-07-25 21:51:00,70.9,58.0,30.03,ESE,117,0.0,1.0,63,0.00,,,0.00,weatherlink.com 1.10,2013-07-26 01:51:00,
2013-07-25 22:06:00,70.1,57.0,30.03,ESE,117,0.0,0.0,64,0.00,,,0.00,weatherlink.com 1.10,2013-07-26 02:06:00,
2013-07-25 22:21:00,69.7,59.0,30.04,ESE,117,0.0,1.0,68,0.00,,,0.00,weatherlink.com 1.10,2013-07-26 02:21:00,
2013-07-25 22:36:00,69.2,59.0,30.04,ESE,117,0.0,1.0,69,0.00,,,0.00,weatherlink.com 1.10,2013-07-26 02:36:00,
2013-07-25 22:51:00,68.5,59.0,30.04,ESE,117,0.0,2.0,72,0.00,,,0.00,weatherlink.com 1.10,2013-07-26 02:51:00,
2013-07-25 23:06:00,67.6,59.0,30.05,SSE,152,1.0,2.0,73,0.00,,,0.00,weatherlink.com 1.10,2013-07-26 03:06:00,
2013-07-25 23:21:00,67.0,59.0,30.05,SSE,153,0.0,2.0,75,0.00,,,0.00,weatherlink.com 1.10,2013-07-26 03:21:00,
2013-07-25 23:36:00,66.8,59.0,30.05,SSE,153,1.0,2.0,75,0.00,,,0.00,weatherlink.com 1.10,2013-07-26 03:36:00,